Time;durP1;ratioP1;P1;durP2;ratioP2;P2;SDS_P1;SDS_P2;PMS_P1;PMS_P2;Temp;Humidity;BMP_temperature;BMP_pressure;BME280_temperature;BME280_humidity;BME280_pressure;Samples;Min_cycle;Max_cycle;Signal;HPM_P1;HPM_P2
2022/12/22 03:28:03;;;;;;;7.07;6.40;;;;;;;19.37;39.99;96851.09;4936633;29;20291;-86
2022/12/22 03:30:29;;;;;;;7.10;6.50;;;;;;;13.44;39.91;95818.53;4931215;29;20359;-85
2022/12/22 03:32:56;;;;;;;7.63;6.93;;;;;;;18.89;40.53;96751.25;4922508;29;20244;-87
2022/12/22 03:35:23;;;;;;;7.63;6.93;;;;;;;19.25;40.14;96807.44;4923487;29;20260;-86
2022/12/22 03:37:50;;;;;;;7.37;6.67;;;;;;;18.51;40.12;96710.31;4904849;29;20268;-85
2022/12/22 03:40:16;;;;;;;7.23;6.53;;;;;;;17.38;40.14;96491.75;4932033;29;20568;-87
2022/12/22 03:48:13;;;;;;;7.10;6.40;;;;;;;18.00;40.28;96582.53;4931748;29;20214;-85
2022/12/22 03:50:40;;;;;;;7.40;6.70;;;;;;;17.61;40.30;96520.38;4912503;29;20214;-85
2022/12/22 03:53:07;;;;;;;6.90;6.20;;;;;;;13.61;40.21;95852.78;4928153;29;20261;-85
2022/12/22 03:55:33;;;;;;;7.13;6.53;;;;;;;19.60;40.17;96855.13;4928714;29;20205;-86
2022/12/22 03:58:02;;;;;;;7.53;6.83;;;;;;;19.99;40.39;96925.00;4911483;29;20205;-86
2022/12/22 04:00:28;;;;;;;6.97;6.37;;;;;;;20.00;40.18;96924.16;4914548;29;20212;-85
2022/12/22 04:02:57;;;;;;;7.23;6.53;;;;;;;18.06;40.12;96591.16;4933697;29;20606;-85
2022/12/22 04:05:24;;;;;;;7.37;6.73;;;;;;;14.40;40.17;95978.34;4906421;29;20739;-85
2022/12/22 04:07:51;;;;;;;7.40;6.80;;;;;;;19.60;40.28;96848.31;4908593;29;20221;-84
2022/12/22 04:13:03;;;;;;;6.83;6.23;;;;;;;18.31;40.45;96627.44;4932480;29;20255;-85
2022/12/22 04:15:30;;;;;;;7.23;6.53;;;;;;;20.01;40.05;96913.13;4937171;29;20235;-85
2022/12/22 04:17:57;;;;;;;7.03;6.43;;;;;;;19.90;40.06;96896.72;4938186;29;20201;-85
2022/12/22 04:20:28;;;;;;;6.90;6.30;;;;;;;18.14;40.24;96587.19;4909697;29;20201;-84
2022/12/22 04:22:54;;;;;;;7.20;6.53;;;;;;;19.61;40.24;96844.97;4937574;29;20264;-84
2022/12/22 04:25:22;;;;;;;6.83;6.23;;;;;;;17.06;40.05;96413.84;4928497;29;20208;-85
2022/12/22 04:27:48;;;;;;;7.47;6.77;;;;;;;16.05;40.28;96224.78;4929898;29;20249;-85
2022/12/22 04:30:15;;;;;;;6.10;5.57;;;;;;;19.29;40.21;96783.78;4940670;29;20228;-84
2022/12/22 04:32:41;;;;;;;6.97;6.37;;;;;;;18.05;39.93;96564.03;4921860;29;20300;-85
2022/12/22 04:35:08;;;;;;;6.73;6.13;;;;;;;18.59;40.26;96655.41;4922854;29;20213;-85
2022/12/22 04:37:35;;;;;;;6.60;6.00;;;;;;;18.45;40.09;96631.28;4913483;29;20259;-85
2022/12/22 04:40:05;;;;;;;7.10;6.50;;;;;;;18.91;40.13;96713.97;4934437;29;20209;-85
2022/12/22 04:42:32;;;;;;;7.27;6.57;;;;;;;18.44;40.10;96624.47;4922708;29;20779;-84
2022/12/22 04:44:58;;;;;;;6.80;6.20;;;;;;;18.48;40.26;96679.69;4923887;29;20654;-85
2022/12/22 04:47:25;;;;;;;6.63;6.03;;;;;;;19.35;39.92;96777.19;4926065;29;20217;-84
2022/12/22 04:49:54;;;;;;;6.30;5.70;;;;;;;17.53;40.07;96515.09;4913488;29;20308;-83
2022/12/22 04:52:21;;;;;;;6.90;6.27;;;;;;;20.01;40.13;96887.63;4939837;29;20201;-84
2022/12/22 04:54:47;;;;;;;6.80;6.20;;;;;;;20.02;39.99;96885.94;4953914;29;20219;-84
2022/12/22 04:57:14;;;;;;;6.60;6.00;;;;;;;18.23;40.26;96570.47;4935816;29;20205;-84
2022/12/22 04:59:40;;;;;;;6.90;6.30;;;;;;;17.88;40.07;96504.25;4932563;29;20215;-84
2022/12/22 05:02:07;;;;;;;6.80;6.20;;;;;;;19.01;40.05;96698.13;4939256;29;20201;-84
2022/12/22 05:04:34;;;;;;;6.10;5.60;;;;;;;20.02;39.99;96875.75;4933708;29;20220;-84
2022/12/22 05:07:00;;;;;;;6.63;6.00;;;;;;;20.02;40.16;96879.16;4937907;29;20236;-84
2022/12/22 05:09:27;;;;;;;7.07;6.37;;;;;;;17.65;40.43;96484.13;4940495;29;20679;-84
2022/12/22 05:11:53;;;;;;;5.97;5.37;;;;;;;19.69;40.21;96824.78;4918605;29;20213;-85
2022/12/22 05:14:20;;;;;;;6.67;6.07;;;;;;;15.75;40.10;96168.16;4915620;29;20312;-83
2022/12/22 05:16:47;;;;;;;6.60;6.00;;;;;;;17.48;40.04;96450.63;4925250;29;20482;-85
2022/12/22 05:19:13;;;;;;;7.00;6.30;;;;;;;19.45;40.16;96783.38;4941631;29;20201;-85
2022/12/22 05:21:40;;;;;;;6.03;5.53;;;;;;;17.58;40.00;96489.81;4930411;29;20700;-85
2022/12/22 05:24:06;;;;;;;6.70;6.10;;;;;;;19.29;40.28;96743.91;4930106;29;20348;-84
2022/12/22 05:26:33;;;;;;;6.93;6.33;;;;;;;20.01;40.23;96868.94;4910287;29;20225;-85
2022/12/22 05:29:00;;;;;;;6.60;6.00;;;;;;;18.59;40.09;96653.72;4938152;29;20216;-85
2022/12/22 05:31:26;;;;;;;6.33;5.73;;;;;;;14.26;39.88;95883.56;4933913;29;20209;-85
2022/12/22 05:33:53;;;;;;;6.70;6.10;;;;;;;19.61;40.20;96798.22;4934924;29;20225;-84
2022/12/22 05:36:21;;;;;;;6.57;5.97;;;;;;;19.39;40.20;96767.94;4926197;29;20256;-84
2022/12/22 05:38:47;;;;;;;6.27;5.77;;;;;;;17.09;40.03;96349.59;4899544;29;20288;-84
2022/12/22 05:41:14;;;;;;;6.47;5.87;;;;;;;19.24;39.75;96717.41;4930240;29;20209;-85
2022/12/22 05:43:40;;;;;;;6.60;6.00;;;;;;;15.83;40.12;96146.44;4930565;29;20231;-85
2022/12/22 05:46:08;;;;;;;6.67;5.83;;;;;;;19.70;40.04;96811.19;4935287;29;20232;-83
2022/12/22 05:48:38;;;;;;;7.00;6.00;;;;;;;19.69;40.26;96795.03;4916424;29;20584;-85
2022/12/22 05:51:08;;;;;;;6.60;6.00;;;;;;;18.45;40.20;96576.19;4914091;29;20590;-84
2022/12/22 05:53:36;;;;;;;6.57;6.00;;;;;;;19.78;40.28;96825.84;4919708;29;20292;-85
2022/12/22 05:56:02;;;;;;;6.57;5.97;;;;;;;20.04;40.10;96857.09;4921830;29;20214;-85
2022/12/22 05:58:29;;;;;;;6.70;6.03;;;;;;;15.41;39.98;96061.59;4927666;29;20201;-85
2022/12/22 06:00:57;;;;;;;6.60;6.00;;;;;;;17.87;40.08;96478.78;4926266;29;20225;-85
2022/12/22 06:03:24;;;;;;;6.10;5.60;;;;;;;18.90;40.40;96669.00;4916206;29;20712;-85
2022/12/22 06:05:51;;;;;;;6.30;5.80;;;;;;;18.64;40.12;96608.03;4927585;29;20292;-84
2022/12/22 06:08:18;;;;;;;6.17;5.63;;;;;;;16.73;40.05;96278.41;4919151;29;20236;-85
2022/12/22 06:10:45;;;;;;;5.93;5.43;;;;;;;18.74;40.11;96615.09;4904514;29;20292;-84
2022/12/22 06:13:11;;;;;;;6.20;5.60;;;;;;;19.72;40.20;96797.66;4952698;29;20243;-85
2022/12/22 06:15:38;;;;;;;6.03;5.43;;;;;;;20.04;40.19;96840.94;4934651;29;20277;-86
2022/12/22 06:18:05;;;;;;;9.17;7.93;;;;;;;12.06;40.04;95492.16;4934936;29;20204;-84
2022/12/22 06:20:31;;;;;;;13.97;10.17;;;;;;;17.33;39.48;96368.91;4919100;29;20236;-85
2022/12/22 06:22:58;;;;;;;13.40;10.10;;;;;;;18.48;38.83;96644.09;4926846;29;20233;-85
2022/12/22 06:25:24;;;;;;;17.20;12.17;;;;;;;14.71;38.33;95949.81;4918491;29;20288;-86
2022/12/22 06:27:51;;;;;;;16.47;11.57;;;;;;;20.02;38.13;96853.66;4912465;29;20226;-85
2022/12/22 06:30:18;;;;;;;17.67;11.67;;;;;;;18.78;37.84;96624.53;4929190;29;20236;-86
2022/12/22 06:32:44;;;;;;;18.77;13.27;;;;;;;19.65;37.58;96771.97;4919882;29;20305;-85
2022/12/22 06:35:11;;;;;;;17.47;13.63;;;;;;;13.84;37.22;95808.94;4935447;29;20279;-85
2022/12/22 06:37:37;;;;;;;21.57;13.93;;;;;;;19.98;37.29;96831.44;4936698;29;20269;-85
2022/12/22 06:40:05;;;;;;;17.07;13.40;;;;;;;18.40;37.39;96556.50;4935701;29;20281;-86
2022/12/22 06:45:17;;;;;;;17.97;13.77;;;;;;;19.54;37.24;96750.47;4935103;29;20212;-86
2022/12/22 06:47:44;;;;;;;15.20;11.43;;;;;;;18.11;37.38;96523.53;4933204;29;20229;-85
2022/12/22 06:50:10;;;;;;;18.50;12.40;;;;;;;19.92;37.25;96832.16;4930984;29;20213;-87
2022/12/22 06:52:37;;;;;;;17.17;12.13;;;;;;;13.88;37.65;95814.94;4930806;29;20229;-89
2022/12/22 06:55:04;;;;;;;14.73;11.13;;;;;;;19.33;38.23;96749.94;4905855;29;20209;-89
2022/12/22 06:57:30;;;;;;;13.17;11.07;;;;;;;18.51;38.27;96588.19;4924294;29;20205;-88
2022/12/22 06:59:57;;;;;;;13.27;10.93;;;;;;;16.79;38.73;96293.78;4914629;29;20211;-89
2022/12/22 07:02:23;;;;;;;12.47;10.30;;;;;;;17.87;38.69;96481.31;4925217;29;20232;-89
2022/12/22 07:04:50;;;;;;;12.73;10.63;;;;;;;19.86;38.52;96859.19;4914954;29;20324;-89
2022/12/22 07:07:17;;;;;;;11.70;10.20;;;;;;;15.36;38.76;96056.38;4927617;29;20605;-89
2022/12/22 07:09:44;;;;;;;12.47;10.23;;;;;;;19.85;38.79;96816.69;4917548;29;20264;-89
2022/12/22 07:12:11;;;;;;;11.47;9.63;;;;;;;19.34;38.38;96755.06;4919640;29;20210;-89
2022/12/22 07:14:38;;;;;;;12.10;9.63;;;;;;;18.28;38.47;96549.41;4900789;29;20213;-85
2022/12/22 07:17:04;;;;;;;14.00;10.53;;;;;;;19.49;38.55;96836.13;4935745;29;20297;-85
2022/12/22 07:19:31;;;;;;;16.73;12.30;;;;;;;19.59;37.96;96815.16;4920942;29;20219;-85
2022/12/22 07:21:57;;;;;;;17.10;11.73;;;;;;;19.18;37.88;96704.50;4909771;29;20205;-84
2022/12/22 07:24:25;;;;;;;14.97;11.53;;;;;;;17.41;37.24;96385.19;4906285;29;20265;-85
2022/12/22 07:26:52;;;;;;;15.40;11.60;;;;;;;19.05;37.82;96671.94;4916615;29;20228;-83
2022/12/22 07:29:18;;;;;;;13.43;10.40;;;;;;;19.25;37.86;96700.44;4917615;29;20243;-85
2022/12/22 07:31:45;;;;;;;13.27;10.90;;;;;;;12.65;38.35;95570.50;4917464;29;20216;-85
2022/12/22 07:34:12;;;;;;;15.40;10.40;;;;;;;18.26;38.46;96538.31;4933594;29;20232;-85
2022/12/22 07:36:38;;;;;;;13.00;10.43;;;;;;;18.55;38.86;96588.31;4905967;29;20214;-85
2022/12/22 07:39:05;;;;;;;17.30;10.33;;;;;;;18.66;38.71;96606.41;4917184;29;20274;-85
2022/12/22 07:44:16;;;;;;;13.40;9.37;;;;;;;19.44;38.90;96739.19;4924165;29;20291;-85
2022/12/22 07:46:43;;;;;;;12.40;9.30;;;;;;;15.86;38.95;96141.44;4932574;29;20213;-85
2022/12/22 07:51:56;;;;;;;10.53;8.00;;;;;;;13.57;39.05;95742.47;4922103;29;20209;-84
2022/12/22 07:54:22;;;;;;;9.57;7.63;;;;;;;17.10;39.49;96336.94;4925265;29;20229;-84
2022/12/22 07:56:49;;;;;;;12.53;8.40;;;;;;;19.05;38.90;96671.06;4927132;29;20277;-84
2022/12/22 07:59:16;;;;;;;8.63;7.83;;;;;;;17.80;39.13;96461.66;4931920;29;20638;-84
2022/12/22 08:01:42;;;;;;;9.33;7.73;;;;;;;18.72;39.55;96611.66;4903833;29;20230;-83
2022/12/22 08:04:09;;;;;;;10.67;7.77;;;;;;;19.20;39.42;96684.19;4919618;29;20232;-83
2022/12/22 08:06:36;;;;;;;11.00;8.47;;;;;;;18.62;39.36;96584.25;4917811;29;20213;-84
2022/12/22 08:09:03;;;;;;;9.03;7.43;;;;;;;19.21;38.97;96691.84;4914323;29;20496;-85
2022/12/22 08:11:29;;;;;;;9.03;7.37;;;;;;;18.96;39.53;96643.69;4915055;29;20208;-85
2022/12/22 08:13:56;;;;;;;10.13;7.20;;;;;;;19.52;39.33;96742.81;4921293;29;20232;-84
2022/12/22 08:16:27;;;;;;;9.90;7.70;;;;;;;18.01;38.89;96491.06;4914797;29;20284;-84
2022/12/22 08:18:53;;;;;;;8.13;6.67;;;;;;;15.91;38.93;96139.91;4941068;29;20660;-85
2022/12/22 08:21:20;;;;;;;10.97;6.60;;;;;;;19.37;39.47;96716.94;4923526;29;20300;-85
2022/12/22 08:23:46;;;;;;;14.37;6.60;;;;;;;14.39;39.56;95921.03;4934975;29;20230;-84
2022/12/22 08:26:18;;;;;;;13.80;6.03;;;;;;;18.52;39.52;96561.91;4911792;29;20252;-84
2022/12/22 08:29:15;;;;;;;13.17;6.57;;;;;;;17.53;39.54;96390.63;4924275;29;20229;-84
2022/12/22 08:31:42;;;;;;;12.43;6.90;;;;;;;19.54;40.11;96740.28;4914260;29;20284;-84
2022/12/22 08:34:09;;;;;;;8.20;6.07;;;;;;;17.81;39.66;96449.00;4939984;29;20696;-83
2022/12/22 08:36:39;;;;;;;11.20;6.27;;;;;;;18.08;39.62;96472.59;4912416;29;20213;-85
2022/12/22 08:39:06;;;;;;;7.93;6.17;;;;;;;17.52;39.52;96368.59;4918335;29;20264;-85
2022/12/22 08:41:50;;;;;;;7.30;6.10;;;;;;;17.18;39.52;96332.06;4936256;29;20211;-86
2022/12/22 08:44:18;;;;;;;9.47;5.80;;;;;;;17.27;39.62;96312.00;4936726;29;20239;-87
2022/12/22 08:46:45;;;;;;;9.13;5.33;;;;;;;12.98;39.53;95616.09;4942299;29;20215;-87
2022/12/22 08:49:12;;;;;;;6.70;5.97;;;;;;;18.79;39.71;96577.88;4907652;29;20229;-86
2022/12/22 08:51:38;;;;;;;8.60;5.77;;;;;;;19.98;39.15;96802.53;4923622;29;20296;-88
2022/12/22 08:54:05;;;;;;;5.60;5.10;;;;;;;18.21;39.48;96487.34;4936673;29;20231;-88
2022/12/22 08:56:32;;;;;;;9.23;5.17;;;;;;;19.99;39.72;96841.69;4929196;29;20210;-85
2022/12/22 08:59:03;;;;;;;10.20;5.37;;;;;;;19.23;39.73;96658.78;4915117;29;20218;-86
2022/12/22 09:01:31;;;;;;;6.33;5.23;;;;;;;14.63;39.55;95878.81;4926212;29;20209;-86
2022/12/22 09:03:58;;;;;;;6.23;5.53;;;;;;;18.83;39.91;96600.06;4931559;29;20287;-86
2022/12/22 09:06:25;;;;;;;7.97;5.07;;;;;;;17.86;39.82;96434.72;4926255;29;20696;-86
2022/12/22 09:08:55;;;;;;;7.03;5.33;;;;;;;17.08;39.75;96315.72;4919372;29;20244;-85
2022/12/22 09:11:22;;;;;;;8.67;5.80;;;;;;;15.48;39.79;96028.94;4906600;29;20604;-86
2022/12/22 09:13:53;;;;;;;6.83;5.03;;;;;;;18.56;39.91;96623.09;4914262;29;20601;-86
2022/12/22 09:16:19;;;;;;;6.27;5.10;;;;;;;15.24;39.95;95996.94;4933769;29;20233;-86
2022/12/22 09:18:46;;;;;;;7.03;5.33;;;;;;;20.02;40.02;96806.88;4937185;29;20209;-86
2022/12/22 09:21:13;;;;;;;7.57;4.90;;;;;;;18.64;40.09;96557.13;4930569;29;20218;-86
2022/12/22 09:23:39;;;;;;;6.53;5.07;;;;;;;18.50;39.51;96546.63;4937543;29;20315;-86
2022/12/22 09:26:07;;;;;;;9.60;5.23;;;;;;;17.43;39.89;96352.22;4925241;29;20656;-86
2022/12/22 09:28:34;;;;;;;5.10;4.60;;;;;;;19.68;40.00;96739.78;4912733;29;20611;-86
2022/12/22 09:31:01;;;;;;;7.07;5.03;;;;;;;19.08;39.89;96623.63;4898236;29;20694;-86
2022/12/22 09:33:27;;;;;;;7.07;5.03;;;;;;;19.66;39.94;96733.78;4913150;29;20720;-88
2022/12/22 09:35:54;;;;;;;5.97;4.93;;;;;;;18.27;39.80;96477.31;4937970;29;20208;-84
2022/12/22 09:38:21;;;;;;;5.70;4.97;;;;;;;18.75;40.26;96561.69;4895426;29;20290;-85
2022/12/22 09:40:47;;;;;;;7.13;4.67;;;;;;;18.63;40.36;96622.47;4928393;29;20685;-85
2022/12/22 09:43:17;;;;;;;6.73;4.93;;;;;;;18.72;40.34;96565.84;4919806;29;20263;-87
2022/12/22 09:45:44;;;;;;;7.60;4.77;;;;;;;19.03;40.17;96741.44;4920880;29;20211;-86
2022/12/22 09:48:11;;;;;;;7.13;4.60;;;;;;;20.06;40.27;96803.56;4920164;29;20221;-85
2022/12/22 09:50:39;;;;;;;6.97;4.47;;;;;;;17.86;40.39;96418.63;4913474;29;20642;-86
2022/12/22 09:53:06;;;;;;;5.67;4.73;;;;;;;19.91;40.28;96815.16;4929581;29;20236;-86
2022/12/22 09:55:40;;;;;;;7.33;4.33;;;;;;;20.05;40.58;96789.09;4904217;29;20204;-87
2022/12/22 09:58:28;;;;;;;4.40;3.97;;;;;;;20.05;40.44;96789.09;4904875;29;20216;-87
2022/12/22 10:01:04;;;;;;;4.77;4.37;;;;;;;20.06;40.37;96785.72;4928423;29;20204;-86
2022/12/22 10:03:49;;;;;;;7.80;4.43;;;;;;;18.50;40.43;96520.34;4929646;29;20241;-87
2022/12/22 10:06:33;;;;;;;11.73;4.83;;;;;;;18.29;40.79;96489.25;4924705;29;20248;-87
2022/12/22 10:09:23;;;;;;;9.57;4.27;;;;;;;19.92;41.36;96767.53;4919026;29;20235;-86
2022/12/22 10:12:13;;;;;;;8.70;4.67;;;;;;;17.95;41.62;96434.94;4920423;29;20263;-86
2022/12/22 10:14:47;;;;;;;8.83;4.30;;;;;;;20.05;41.59;96795.06;4906434;29;20241;-87
2022/12/22 10:17:14;;;;;;;5.47;4.23;;;;;;;20.11;41.38;96805.41;4915155;29;20266;-87
2022/12/22 10:19:41;;;;;;;7.00;4.30;;;;;;;18.56;41.19;96562.03;4934661;29;20216;-87
2022/12/22 10:22:18;;;;;;;7.77;4.37;;;;;;;17.19;41.08;96285.56;4934671;29;20235;-85
2022/12/22 10:24:45;;;;;;;6.60;3.97;;;;;;;18.85;40.91;96572.94;4925831;29;20217;-87
2022/12/22 10:27:12;;;;;;;7.27;4.03;;;;;;;14.25;41.07;95795.97;4927933;29;20255;-87
2022/12/22 10:29:38;;;;;;;6.27;4.10;;;;;;;19.17;40.96;96662.06;4920042;29;20255;-86
2022/12/22 10:32:12;;;;;;;8.57;4.20;;;;;;;19.56;41.15;96690.19;4908888;29;20244;-86
2022/12/22 10:35:02;;;;;;;10.73;4.33;;;;;;;18.96;40.99;96585.13;4903541;29;20236;-87
2022/12/22 10:37:34;;;;;;;4.80;3.97;;;;;;;19.79;41.07;96733.25;4935651;29;20309;-87
2022/12/22 10:40:20;;;;;;;7.23;3.83;;;;;;;15.05;40.90;95965.22;4917248;29;20212;-88
2022/12/22 10:42:49;;;;;;;7.60;4.47;;;;;;;10.46;41.02;95180.78;4924027;29;20228;-88
2022/12/22 10:45:20;;;;;;;6.80;3.87;;;;;;;13.54;41.08;95650.66;4914410;29;20300;-87
2022/12/22 10:47:54;;;;;;;7.47;4.10;;;;;;;18.39;40.84;96484.44;4911398;29;20243;-86
2022/12/22 10:50:21;;;;;;;6.63;4.20;;;;;;;20.10;40.87;96790.09;4921712;29;20732;-86
2022/12/22 10:52:52;;;;;;;5.53;3.93;;;;;;;19.78;41.11;96736.63;4921191;29;20323;-86
2022/12/22 10:55:19;;;;;;;6.00;4.00;;;;;;;20.14;41.03;96768.94;4930476;29;20577;-86
2022/12/22 10:57:46;;;;;;;4.83;3.67;;;;;;;19.51;40.97;96659.50;4928608;29;20209;-86
2022/12/22 11:00:29;;;;;;;3.80;3.40;;;;;;;20.15;41.08;96765.56;4918121;29;20993;-84
2022/12/22 11:02:57;;;;;;;6.23;4.43;;;;;;;18.69;41.16;96525.91;4934632;29;20260;-88
2022/12/22 11:05:24;;;;;;;6.60;3.90;;;;;;;17.32;41.30;96278.28;4930275;29;20209;-87
2022/12/22 11:07:51;;;;;;;4.70;3.80;;;;;;;19.75;41.19;96690.66;4898741;29;20663;-86
2022/12/22 11:10:29;;;;;;;6.63;3.80;;;;;;;20.16;41.61;96752.84;4925430;29;20213;-86
2022/12/22 11:13:08;;;;;;;5.93;3.80;;;;;;;20.16;41.49;96741.78;4933820;28;20323;-88
2022/12/22 11:15:58;;;;;;;5.40;3.90;;;;;;;20.17;41.48;96758.81;4927746;29;20688;-87
2022/12/22 11:18:35;;;;;;;6.57;4.50;;;;;;;19.75;41.60;96688.09;4927686;29;20233;-86
2022/12/22 11:21:18;;;;;;;6.27;4.00;;;;;;;18.94;41.92;96568.06;4921655;29;20212;-84
2022/12/22 11:24:11;;;;;;;6.73;3.67;;;;;;;20.17;42.00;96779.22;4945788;28;20225;-85
2022/12/22 11:26:54;;;;;;;5.90;3.20;;;;;;;20.17;42.27;96789.41;4933159;29;20216;-83
2022/12/22 11:29:33;;;;;;;4.83;3.07;;;;;;;20.17;42.21;96797.06;4919908;29;20224;-84
2022/12/22 11:32:13;;;;;;;3.50;2.83;;;;;;;20.16;42.47;96808.13;4938950;29;20205;-85
2022/12/22 11:34:49;;;;;;;4.17;2.60;;;;;;;18.85;42.51;96570.41;4918402;29;20224;-84
2022/12/22 11:37:39;;;;;;;5.03;2.70;;;;;;;19.42;42.36;96671.19;4935171;29;20291;-84
2022/12/22 11:40:17;;;;;;;5.23;3.10;;;;;;;20.14;42.50;96780.00;4919021;29;20205;-85
2022/12/22 11:43:05;;;;;;;4.67;3.10;;;;;;;20.15;42.33;96791.06;4933091;29;20728;-86
2022/12/22 11:45:51;;;;;;;4.73;2.83;;;;;;;20.15;42.24;96774.06;4943756;29;20240;-87
2022/12/22 11:48:41;;;;;;;4.80;2.90;;;;;;;20.14;42.37;96781.69;4927321;29;20287;-85
2022/12/22 11:51:25;;;;;;;4.23;2.87;;;;;;;19.16;42.21;96596.63;4931313;29;20220;-87
2022/12/22 11:54:17;;;;;;;4.37;2.70;;;;;;;17.98;42.09;96385.91;4942665;29;20228;-87
2022/12/22 11:56:57;;;;;;;4.00;2.50;;;;;;;20.11;42.15;96769.72;4931230;29;20221;-87
2022/12/22 12:00:00;;;;;;;4.30;2.90;;;;;;;20.13;42.11;96747.66;4937489;29;20200;-85
2022/12/22 12:02:27;;;;;;;4.40;2.70;;;;;;;20.12;42.17;96739.94;4835361;29;20208;-86
2022/12/22 12:05:21;;;;;;;3.80;2.60;;;;;;;20.13;42.29;96747.66;4910042;29;20217;-86
2022/12/22 12:07:49;;;;;;;3.67;2.50;;;;;;;19.94;42.21;96704.69;4937431;29;20212;-85
2022/12/22 12:10:19;;;;;;;4.73;2.80;;;;;;;20.13;42.69;96732.34;4921904;29;20241;-85
2022/12/22 12:12:52;;;;;;;3.07;2.73;;;;;;;20.14;42.56;96731.56;4941017;29;20249;-87
2022/12/22 12:15:36;;;;;;;4.90;2.67;;;;;;;17.68;42.63;96327.53;4938434;29;20202;-86
2022/12/22 12:18:39;;;;;;;4.13;2.70;;;;;;;20.15;42.49;96728.16;4905168;29;20936;-87
2022/12/22 12:21:32;;;;;;;3.97;2.90;;;;;;;19.74;43.00;96670.22;4932613;29;20213;-85
2022/12/22 12:24:05;;;;;;;5.03;3.10;;;;;;;15.88;42.85;96013.19;4936218;29;20255;-86
2022/12/22 12:26:42;;;;;;;6.43;3.00;;;;;;;20.17;42.91;96729.06;4932093;29;20633;-85
2022/12/22 12:29:24;;;;;;;3.80;2.83;;;;;;;17.64;42.69;96295.25;4936114;29;20225;-85
2022/12/22 12:32:00;;;;;;;4.10;2.80;;;;;;;20.18;42.87;96738.44;4910820;29;20211;-82
2022/12/22 12:34:29;;;;;;;5.27;2.70;;;;;;;15.38;42.68;95967.88;4940127;29;20231;-83
2022/12/22 12:37:26;;;;;;;7.13;3.00;;;;;;;12.89;42.65;95535.16;4933729;29;20205;-86
2022/12/22 12:40:27;;;;;;;7.97;2.90;;;;;;;20.18;42.58;96732.47;4946553;29;20209;-87
2022/12/22 12:42:53;;;;;;;5.50;3.07;;;;;;;18.58;42.67;96490.84;4932239;29;20225;-89
2022/12/22 12:45:40;;;;;;;6.83;3.07;;;;;;;20.18;43.16;96745.22;4912925;29;20209;-88
2022/12/22 12:48:19;;;;;;;5.90;3.13;;;;;;;20.18;43.33;96729.91;4924477;29;20259;-86
2022/12/22 12:50:55;;;;;;;5.07;3.10;;;;;;;20.18;43.18;96740.09;4942524;29;20208;-85
2022/12/22 12:53:23;;;;;;;6.37;3.27;;;;;;;19.41;44.44;96611.72;4938097;29;20228;-85
2022/12/22 12:55:50;;;;;;;4.70;3.23;;;;;;;20.16;44.28;96732.44;4917784;29;20215;-86
2022/12/22 12:58:38;;;;;;;7.00;3.43;;;;;;;20.16;44.29;96739.25;4935716;29;20288;-85
2022/12/22 13:01:28;;;;;;;6.97;3.57;;;;;;;20.15;44.60;96745.16;4932120;29;20303;-85
2022/12/22 13:03:54;;;;;;;6.43;3.40;;;;;;;19.74;44.50;96711.88;4900488;29;20313;-85
2022/12/22 13:06:48;;;;;;;6.83;3.40;;;;;;;17.40;44.39;96293.72;4933436;29;20221;-85
2022/12/22 13:09:18;;;;;;;4.20;2.80;;;;;;;17.84;44.09;96356.72;4935781;29;20221;-86
2022/12/22 13:12:31;;;;;;;6.80;3.23;;;;;;;20.15;44.51;96740.91;4932152;29;20241;-84
2022/12/22 13:15:00;;;;;;;6.90;3.33;;;;;;;19.47;44.50;96669.59;4930947;29;20235;-85
2022/12/22 13:17:39;;;;;;;3.67;2.90;;;;;;;20.16;44.17;96739.25;4928202;29;20205;-85
2022/12/22 13:20:12;;;;;;;7.13;3.27;;;;;;;17.86;44.23;96350.00;4937112;29;20220;-85
2022/12/22 13:22:39;;;;;;;5.60;2.93;;;;;;;19.19;43.92;96578.03;4916204;29;20262;-87
2022/12/22 13:25:13;;;;;;;5.40;3.10;;;;;;;20.17;44.03;96738.41;4917866;29;20257;-86
2022/12/22 13:27:39;;;;;;;4.67;3.10;;;;;;;16.73;44.21;96230.19;4916582;29;20229;-85
2022/12/22 13:30:14;;;;;;;5.67;3.20;;;;;;;20.18;44.12;96742.66;4920652;29;20221;-86
2022/12/22 13:32:40;;;;;;;6.10;3.20;;;;;;;15.02;43.81;95868.13;4930235;29;20235;-87
2022/12/22 13:35:22;;;;;;;4.97;3.07;;;;;;;19.35;43.89;96603.06;4940810;29;20224;-85
2022/12/22 13:37:58;;;;;;;5.53;2.93;;;;;;;16.82;43.90;96184.78;4937305;29;20219;-85
2022/12/22 13:40:27;;;;;;;4.93;3.20;;;;;;;18.60;44.17;96481.56;4925051;29;20198;-87
2022/12/22 13:43:00;;;;;;;5.43;2.77;;;;;;;16.38;44.19;96246.91;4926832;29;20253;-88
2022/12/22 13:45:38;;;;;;;4.40;2.80;;;;;;;19.14;43.93;96574.50;4897583;29;20233;-86
2022/12/22 13:48:16;;;;;;;6.20;3.20;;;;;;;19.12;44.03;96578.69;4932828;29;20404;-85
2022/12/22 13:50:59;;;;;;;5.43;2.80;;;;;;;20.16;44.05;96755.38;4927377;29;20233;-84
2022/12/22 13:53:40;;;;;;;3.80;2.90;;;;;;;19.78;44.20;96690.72;4936571;29;20320;-86
2022/12/22 13:56:38;;;;;;;4.67;2.60;;;;;;;14.44;43.91;95774.59;4918904;29;20208;-85
2022/12/22 13:59:05;;;;;;;3.43;2.40;;;;;;;18.10;43.86;96402.31;4904759;29;20201;-86
2022/12/22 14:01:31;;;;;;;6.60;3.03;;;;;;;20.15;43.80;96775.75;4936646;29;20276;-85
2022/12/22 14:04:02;;;;;;;6.33;2.60;;;;;;;19.47;43.92;96639.88;4933289;29;20236;-86
2022/12/22 14:06:34;;;;;;;6.47;2.90;;;;;;;19.17;43.76;96595.84;4930839;29;20209;-85
2022/12/22 14:09:19;;;;;;;4.53;2.47;;;;;;;20.15;43.98;96760.44;4922896;29;20233;-87
2022/12/22 14:11:56;;;;;;;6.07;2.80;;;;;;;18.90;43.77;96549.34;4944227;29;20305;-86
2022/12/22 14:14:25;;;;;;;4.60;2.60;;;;;;;19.55;43.62;96668.97;4934770;29;20601;-87
2022/12/22 14:16:53;;;;;;;3.93;2.73;;;;;;;19.42;43.63;96640.63;4926198;29;20606;-84
2022/12/22 14:19:20;;;;;;;5.07;3.40;;;;;;;13.68;43.66;95667.09;4944335;29;20208;-86
2022/12/22 14:21:50;;;;;;;4.97;2.97;;;;;;;18.42;43.78;96481.13;4944095;29;20207;-86
2022/12/22 14:24:21;;;;;;;4.47;2.43;;;;;;;20.17;43.58;96799.63;4931606;29;20252;-85
2022/12/22 14:26:48;;;;;;;5.97;2.63;;;;;;;13.15;43.71;95602.41;4931566;29;20216;-86
2022/12/22 14:29:18;;;;;;;6.73;3.10;;;;;;;17.31;43.91;96329.03;4918059;29;20232;-86
2022/12/22 14:31:58;;;;;;;6.03;3.10;;;;;;;14.31;43.63;95813.84;4952881;29;20205;-86
2022/12/22 14:34:27;;;;;;;11.07;3.27;;;;;;;14.02;44.20;95746.41;4945881;29;20232;-88
2022/12/22 14:36:53;;;;;;;8.73;3.23;;;;;;;16.58;44.54;96285.53;4940559;29;20204;-88
2022/12/22 14:39:30;;;;;;;7.97;3.03;;;;;;;20.17;44.88;96808.16;4946495;29;20295;-90
2022/12/22 14:42:04;;;;;;;11.53;3.50;;;;;;;14.59;44.38;95844.16;4932217;29;20212;-88
2022/12/22 14:44:46;;;;;;;13.17;3.33;;;;;;;11.06;44.29;95280.81;4937800;29;20265;-88
2022/12/22 14:47:16;;;;;;;11.20;3.60;;;;;;;17.85;44.52;96442.28;4924562;29;20211;-87
2022/12/22 14:49:42;;;;;;;14.17;3.80;;;;;;;20.18;44.63;96817.50;4945936;29;20373;-88
2022/12/22 14:52:16;;;;;;;11.97;3.63;;;;;;;16.10;44.08;96225.78;4940173;29;20292;-85
2022/12/22 14:54:45;;;;;;;9.23;3.90;;;;;;;18.59;44.24;96548.56;4950382;29;20272;-85
2022/12/22 14:57:13;;;;;;;9.80;3.27;;;;;;;16.06;44.24;96118.41;4937219;29;20236;-85
2022/12/22 14:59:56;;;;;;;8.20;3.50;;;;;;;20.18;44.28;96830.28;4934235;29;20205;-85
2022/12/22 15:02:35;;;;;;;8.27;3.70;;;;;;;20.18;44.35;96837.91;4942546;29;20218;-88
2022/12/22 15:05:23;;;;;;;5.40;3.00;;;;;;;18.74;44.16;96605.75;4940266;29;20217;-86
2022/12/22 15:07:51;;;;;;;9.77;3.70;;;;;;;15.38;43.90;96015.97;4942339;29;20213;-84
2022/12/22 15:10:40;;;;;;;9.83;3.33;;;;;;;16.99;44.06;96292.63;4933842;29;20239;-85
2022/12/22 15:13:15;;;;;;;6.27;2.70;;;;;;;14.79;43.97;95937.41;4943441;29;20209;-87
2022/12/22 15:15:42;;;;;;;8.43;3.30;;;;;;;18.74;44.02;96640.56;4922910;29;20207;-86
2022/12/22 15:18:12;;;;;;;7.77;3.00;;;;;;;20.19;44.12;96867.69;4943152;29;20204;-86
2022/12/22 15:20:38;;;;;;;7.27;2.83;;;;;;;19.76;43.93;96790.94;4940485;29;20273;-88
2022/12/22 15:23:13;;;;;;;6.17;3.10;;;;;;;14.17;44.08;95902.59;4946885;29;20229;-86
2022/12/22 15:25:39;;;;;;;5.70;2.80;;;;;;;15.37;43.85;96107.88;4929897;29;20214;-85
2022/12/22 15:28:06;;;;;;;15.10;3.63;;;;;;;14.87;44.04;95956.22;4945502;29;20220;-88
2022/12/22 15:30:32;;;;;;;6.97;3.13;;;;;;;15.12;43.97;96055.63;4934297;29;20220;-87
2022/12/22 15:32:59;;;;;;;9.83;2.60;;;;;;;18.26;44.14;96545.94;4943749;29;20236;-85
2022/12/22 15:35:33;;;;;;;8.43;2.80;;;;;;;20.17;43.88;96876.16;4943086;29;20205;-86